sensor_id;sensor_type;location;lat;lon;timestamp;temperature;humidity
82126;DHT22;71668;51.400;6.758;2023-08-06T00:01:43;17.10;70.50
82126;DHT22;71668;51.400;6.758;2023-08-06T00:04:10;17.20;70.60
82126;DHT22;71668;51.400;6.758;2023-08-06T00:06:37;17.30;70.30
82126;DHT22;71668;51.400;6.758;2023-08-06T00:09:04;17.40;70.10
82126;DHT22;71668;51.400;6.758;2023-08-06T00:11:31;17.40;69.80
82126;DHT22;71668;51.400;6.758;2023-08-06T00:13:58;17.40;69.60
82126;DHT22;71668;51.400;6.758;2023-08-06T00:16:24;17.40;69.60
82126;DHT22;71668;51.400;6.758;2023-08-06T00:18:51;17.20;70.10
82126;DHT22;71668;51.400;6.758;2023-08-06T00:21:18;17.10;70.40
82126;DHT22;71668;51.400;6.758;2023-08-06T00:23:45;17.10;70.60
82126;DHT22;71668;51.400;6.758;2023-08-06T00:26:12;17.20;70.10
82126;DHT22;71668;51.400;6.758;2023-08-06T00:28:38;17.10;70.10
82126;DHT22;71668;51.400;6.758;2023-08-06T00:31:05;17.20;70.30
82126;DHT22;71668;51.400;6.758;2023-08-06T00:33:32;17.20;70.00
82126;DHT22;71668;51.400;6.758;2023-08-06T00:35:59;17.10;70.00
82126;DHT22;71668;51.400;6.758;2023-08-06T00:38:26;17.00;70.20
82126;DHT22;71668;51.400;6.758;2023-08-06T00:40:53;16.90;70.40
82126;DHT22;71668;51.400;6.758;2023-08-06T00:43:19;16.80;70.90
82126;DHT22;71668;51.400;6.758;2023-08-06T00:45:46;16.80;71.00
82126;DHT22;71668;51.400;6.758;2023-08-06T00:48:14;16.80;70.90
82126;DHT22;71668;51.400;6.758;2023-08-06T00:50:41;16.90;70.90
82126;DHT22;71668;51.400;6.758;2023-08-06T00:53:11;16.90;71.60
82126;DHT22;71668;51.400;6.758;2023-08-06T00:55:41;16.70;71.30
82126;DHT22;71668;51.400;6.758;2023-08-06T00:58:09;16.60;71.60
82126;DHT22;71668;51.400;6.758;2023-08-06T01:00:36;16.60;71.70
82126;DHT22;71668;51.400;6.758;2023-08-06T01:03:04;16.60;71.90
82126;DHT22;71668;51.400;6.758;2023-08-06T01:05:31;16.70;71.70
82126;DHT22;71668;51.400;6.758;2023-08-06T01:16:05;17.20;70.00
82126;DHT22;71668;51.400;6.758;2023-08-06T01:18:33;17.30;69.60
82126;DHT22;71668;51.400;6.758;2023-08-06T01:21:01;17.40;69.40
82126;DHT22;71668;51.400;6.758;2023-08-06T01:23:30;17.40;69.00
82126;DHT22;71668;51.400;6.758;2023-08-06T01:31:50;17.40;68.60
82126;DHT22;71668;51.400;6.758;2023-08-06T01:34:24;17.40;68.50
82126;DHT22;71668;51.400;6.758;2023-08-06T01:36:53;17.50;68.40
82126;DHT22;71668;51.400;6.758;2023-08-06T01:39:23;17.50;68.20
82126;DHT22;71668;51.400;6.758;2023-08-06T01:41:49;17.50;68.20
82126;DHT22;71668;51.400;6.758;2023-08-06T01:44:17;17.50;68.20
82126;DHT22;71668;51.400;6.758;2023-08-06T01:46:44;17.50;68.50
82126;DHT22;71668;51.400;6.758;2023-08-06T01:49:11;17.60;68.90
82126;DHT22;71668;51.400;6.758;2023-08-06T01:51:38;17.50;68.90
82126;DHT22;71668;51.400;6.758;2023-08-06T01:54:05;17.20;69.70
82126;DHT22;71668;51.400;6.758;2023-08-06T01:56:31;17.10;70.20
82126;DHT22;71668;51.400;6.758;2023-08-06T01:58:58;17.20;70.20
82126;DHT22;71668;51.400;6.758;2023-08-06T02:01:28;17.30;70.20
82126;DHT22;71668;51.400;6.758;2023-08-06T02:03:55;17.50;70.00
82126;DHT22;71668;51.400;6.758;2023-08-06T02:06:22;17.50;69.40
82126;DHT22;71668;51.400;6.758;2023-08-06T02:08:49;17.50;69.40
82126;DHT22;71668;51.400;6.758;2023-08-06T02:11:16;17.50;69.20
82126;DHT22;71668;51.400;6.758;2023-08-06T02:13:43;17.40;69.50
82126;DHT22;71668;51.400;6.758;2023-08-06T02:16:16;17.40;69.50
82126;DHT22;71668;51.400;6.758;2023-08-06T02:18:43;17.40;69.30
82126;DHT22;71668;51.400;6.758;2023-08-06T02:21:10;17.40;69.30
82126;DHT22;71668;51.400;6.758;2023-08-06T02:23:37;17.40;69.50
82126;DHT22;71668;51.400;6.758;2023-08-06T02:26:04;17.30;69.30
82126;DHT22;71668;51.400;6.758;2023-08-06T02:28:32;17.30;69.50
82126;DHT22;71668;51.400;6.758;2023-08-06T02:30:59;17.30;69.40
82126;DHT22;71668;51.400;6.758;2023-08-06T02:33:26;17.30;69.50
82126;DHT22;71668;51.400;6.758;2023-08-06T02:36:02;17.30;69.50
82126;DHT22;71668;51.400;6.758;2023-08-06T02:38:31;17.40;69.80
82126;DHT22;71668;51.400;6.758;2023-08-06T02:40:58;17.30;69.20
82126;DHT22;71668;51.400;6.758;2023-08-06T02:43:32;17.30;69.40
82126;DHT22;71668;51.400;6.758;2023-08-06T02:46:00;17.30;69.30
82126;DHT22;71668;51.400;6.758;2023-08-06T02:48:27;17.20;69.20
82126;DHT22;71668;51.400;6.758;2023-08-06T02:50:58;17.30;69.40
82126;DHT22;71668;51.400;6.758;2023-08-06T02:53:30;17.20;69.20
82126;DHT22;71668;51.400;6.758;2023-08-06T02:56:02;17.10;69.50
82126;DHT22;71668;51.400;6.758;2023-08-06T02:58:45;17.10;69.80
82126;DHT22;71668;51.400;6.758;2023-08-06T03:01:22;17.00;69.80
82126;DHT22;71668;51.400;6.758;2023-08-06T03:03:55;17.00;70.10
82126;DHT22;71668;51.400;6.758;2023-08-06T03:06:29;17.00;70.20
82126;DHT22;71668;51.400;6.758;2023-08-06T03:08:58;17.00;70.70
82126;DHT22;71668;51.400;6.758;2023-08-06T03:11:25;17.00;69.90
82126;DHT22;71668;51.400;6.758;2023-08-06T03:13:57;17.00;70.00
82126;DHT22;71668;51.400;6.758;2023-08-06T03:16:24;17.10;70.00
82126;DHT22;71668;51.400;6.758;2023-08-06T03:18:51;17.00;70.00
82126;DHT22;71668;51.400;6.758;2023-08-06T03:21:20;17.00;70.00
82126;DHT22;71668;51.400;6.758;2023-08-06T03:23:47;17.00;70.00
82126;DHT22;71668;51.400;6.758;2023-08-06T03:26:18;17.00;70.00
82126;DHT22;71668;51.400;6.758;2023-08-06T03:28:46;17.00;70.10
82126;DHT22;71668;51.400;6.758;2023-08-06T03:31:13;17.00;70.20
82126;DHT22;71668;51.400;6.758;2023-08-06T03:33:42;17.00;70.30
82126;DHT22;71668;51.400;6.758;2023-08-06T03:36:14;17.10;70.30
82126;DHT22;71668;51.400;6.758;2023-08-06T03:38:42;17.10;70.30
82126;DHT22;71668;51.400;6.758;2023-08-06T03:41:11;17.10;70.20
82126;DHT22;71668;51.400;6.758;2023-08-06T03:43:38;17.00;70.10
82126;DHT22;71668;51.400;6.758;2023-08-06T03:46:09;17.00;70.30
82126;DHT22;71668;51.400;6.758;2023-08-06T03:48:36;17.00;70.30
82126;DHT22;71668;51.400;6.758;2023-08-06T03:51:03;17.00;70.20
82126;DHT22;71668;51.400;6.758;2023-08-06T03:53:30;17.00;70.10
82126;DHT22;71668;51.400;6.758;2023-08-06T03:55:58;17.00;70.20
82126;DHT22;71668;51.400;6.758;2023-08-06T03:58:28;17.00;70.20
82126;DHT22;71668;51.400;6.758;2023-08-06T04:01:02;17.00;70.30
82126;DHT22;71668;51.400;6.758;2023-08-06T04:03:38;17.00;70.20
82126;DHT22;71668;51.400;6.758;2023-08-06T04:06:06;16.90;70.30
82126;DHT22;71668;51.400;6.758;2023-08-06T04:08:33;16.90;70.50
82126;DHT22;71668;51.400;6.758;2023-08-06T04:11:02;16.80;70.60
82126;DHT22;71668;51.400;6.758;2023-08-06T04:13:31;16.90;70.80
82126;DHT22;71668;51.400;6.758;2023-08-06T04:16:04;16.90;70.70
82126;DHT22;71668;51.400;6.758;2023-08-06T04:18:32;17.00;70.80
82126;DHT22;71668;51.400;6.758;2023-08-06T04:20:59;17.00;70.60
82126;DHT22;71668;51.400;6.758;2023-08-06T04:23:25;17.00;70.30
82126;DHT22;71668;51.400;6.758;2023-08-06T04:26:00;17.10;70.20
82126;DHT22;71668;51.400;6.758;2023-08-06T04:28:31;17.10;70.20
82126;DHT22;71668;51.400;6.758;2023-08-06T04:30:59;17.10;70.40
82126;DHT22;71668;51.400;6.758;2023-08-06T04:33:26;17.20;70.20
82126;DHT22;71668;51.400;6.758;2023-08-06T04:35:55;17.20;70.00
82126;DHT22;71668;51.400;6.758;2023-08-06T04:38:24;17.30;69.80
82126;DHT22;71668;51.400;6.758;2023-08-06T04:40:53;17.30;69.70
82126;DHT22;71668;51.400;6.758;2023-08-06T04:43:21;17.30;69.60
82126;DHT22;71668;51.400;6.758;2023-08-06T04:45:50;17.40;69.60
82126;DHT22;71668;51.400;6.758;2023-08-06T04:48:18;17.30;69.50
82126;DHT22;71668;51.400;6.758;2023-08-06T04:50:46;17.40;69.60
82126;DHT22;71668;51.400;6.758;2023-08-06T04:53:13;17.40;69.40
82126;DHT22;71668;51.400;6.758;2023-08-06T04:55:40;17.40;69.30
82126;DHT22;71668;51.400;6.758;2023-08-06T04:58:09;17.40;69.30
82126;DHT22;71668;51.400;6.758;2023-08-06T05:00:36;17.50;69.40
82126;DHT22;71668;51.400;6.758;2023-08-06T05:03:03;17.50;69.20
82126;DHT22;71668;51.400;6.758;2023-08-06T05:05:30;17.60;69.10
82126;DHT22;71668;51.400;6.758;2023-08-06T05:07:57;17.60;69.10
82126;DHT22;71668;51.400;6.758;2023-08-06T05:10:25;17.70;69.10
82126;DHT22;71668;51.400;6.758;2023-08-06T05:12:53;17.80;69.00
82126;DHT22;71668;51.400;6.758;2023-08-06T05:15:20;17.80;68.80
82126;DHT22;71668;51.400;6.758;2023-08-06T05:17:47;17.80;68.60
82126;DHT22;71668;51.400;6.758;2023-08-06T05:20:13;17.90;68.40
82126;DHT22;71668;51.400;6.758;2023-08-06T05:22:41;18.00;68.20
82126;DHT22;71668;51.400;6.758;2023-08-06T05:25:13;18.00;67.60
82126;DHT22;71668;51.400;6.758;2023-08-06T05:27:41;18.10;67.70
82126;DHT22;71668;51.400;6.758;2023-08-06T05:30:08;18.20;67.40
82126;DHT22;71668;51.400;6.758;2023-08-06T05:32:36;18.20;66.80
82126;DHT22;71668;51.400;6.758;2023-08-06T05:35:03;18.30;66.90
82126;DHT22;71668;51.400;6.758;2023-08-06T05:37:30;18.40;67.00
82126;DHT22;71668;51.400;6.758;2023-08-06T05:39:57;18.30;66.40
82126;DHT22;71668;51.400;6.758;2023-08-06T05:42:24;18.20;66.40
82126;DHT22;71668;51.400;6.758;2023-08-06T05:44:51;18.20;66.30
82126;DHT22;71668;51.400;6.758;2023-08-06T05:47:18;18.20;66.40
82126;DHT22;71668;51.400;6.758;2023-08-06T05:49:46;18.10;66.30
82126;DHT22;71668;51.400;6.758;2023-08-06T05:52:13;18.10;66.30
82126;DHT22;71668;51.400;6.758;2023-08-06T05:54:40;18.10;66.70
82126;DHT22;71668;51.400;6.758;2023-08-06T05:57:07;18.20;66.60
82126;DHT22;71668;51.400;6.758;2023-08-06T05:59:34;18.40;66.10
82126;DHT22;71668;51.400;6.758;2023-08-06T06:02:01;18.60;65.50
82126;DHT22;71668;51.400;6.758;2023-08-06T06:04:28;18.70;65.20
82126;DHT22;71668;51.400;6.758;2023-08-06T06:06:54;19.00;64.70
82126;DHT22;71668;51.400;6.758;2023-08-06T06:09:21;19.60;64.10
82126;DHT22;71668;51.400;6.758;2023-08-06T06:11:48;20.30;61.50
82126;DHT22;71668;51.400;6.758;2023-08-06T06:14:17;21.40;59.60
82126;DHT22;71668;51.400;6.758;2023-08-06T06:16:45;22.10;57.90
82126;DHT22;71668;51.400;6.758;2023-08-06T06:19:12;23.00;55.90
82126;DHT22;71668;51.400;6.758;2023-08-06T06:21:39;24.90;53.20
82126;DHT22;71668;51.400;6.758;2023-08-06T06:24:06;27.00;48.60
82126;DHT22;71668;51.400;6.758;2023-08-06T06:26:34;28.30;45.50
82126;DHT22;71668;51.400;6.758;2023-08-06T06:29:01;29.00;42.90
82126;DHT22;71668;51.400;6.758;2023-08-06T06:31:28;29.80;41.30
82126;DHT22;71668;51.400;6.758;2023-08-06T06:33:54;30.60;39.60
82126;DHT22;71668;51.400;6.758;2023-08-06T06:36:21;30.80;38.60
82126;DHT22;71668;51.400;6.758;2023-08-06T06:38:50;31.30;37.40
82126;DHT22;71668;51.400;6.758;2023-08-06T06:41:17;32.10;36.70
82126;DHT22;71668;51.400;6.758;2023-08-06T06:43:44;32.90;35.30
82126;DHT22;71668;51.400;6.758;2023-08-06T06:46:11;32.90;34.50
82126;DHT22;71668;51.400;6.758;2023-08-06T06:48:38;32.00;34.90
82126;DHT22;71668;51.400;6.758;2023-08-06T06:51:05;30.10;37.50
82126;DHT22;71668;51.400;6.758;2023-08-06T06:53:32;30.10;37.80
82126;DHT22;71668;51.400;6.758;2023-08-06T06:56:03;29.70;37.90
82126;DHT22;71668;51.400;6.758;2023-08-06T06:58:32;28.40;39.60
82126;DHT22;71668;51.400;6.758;2023-08-06T07:00:59;27.80;40.80
82126;DHT22;71668;51.400;6.758;2023-08-06T07:03:26;27.60;41.50
82126;DHT22;71668;51.400;6.758;2023-08-06T07:05:57;27.70;41.40
82126;DHT22;71668;51.400;6.758;2023-08-06T07:08:25;27.80;41.30
82126;DHT22;71668;51.400;6.758;2023-08-06T07:11:03;26.90;41.90
82126;DHT22;71668;51.400;6.758;2023-08-06T07:13:30;26.90;42.40
82126;DHT22;71668;51.400;6.758;2023-08-06T07:15:58;26.50;42.80
82126;DHT22;71668;51.400;6.758;2023-08-06T07:18:25;26.30;43.30
82126;DHT22;71668;51.400;6.758;2023-08-06T07:20:54;26.30;43.60
82126;DHT22;71668;51.400;6.758;2023-08-06T07:23:22;26.60;43.60
82126;DHT22;71668;51.400;6.758;2023-08-06T07:25:49;27.20;42.90
82126;DHT22;71668;51.400;6.758;2023-08-06T07:28:17;27.30;42.00
82126;DHT22;71668;51.400;6.758;2023-08-06T07:30:44;27.40;41.60
82126;DHT22;71668;51.400;6.758;2023-08-06T07:33:12;27.50;41.50
82126;DHT22;71668;51.400;6.758;2023-08-06T07:35:39;28.60;40.50
82126;DHT22;71668;51.400;6.758;2023-08-06T07:38:05;29.20;39.30
82126;DHT22;71668;51.400;6.758;2023-08-06T07:40:35;29.40;38.70
82126;DHT22;71668;51.400;6.758;2023-08-06T07:43:03;28.70;39.20
82126;DHT22;71668;51.400;6.758;2023-08-06T07:45:37;27.90;40.10
82126;DHT22;71668;51.400;6.758;2023-08-06T07:48:04;27.20;41.60
82126;DHT22;71668;51.400;6.758;2023-08-06T07:50:31;26.50;42.90
82126;DHT22;71668;51.400;6.758;2023-08-06T07:52:58;25.90;43.80
82126;DHT22;71668;51.400;6.758;2023-08-06T07:55:25;25.50;44.90
82126;DHT22;71668;51.400;6.758;2023-08-06T07:57:53;25.30;45.90
82126;DHT22;71668;51.400;6.758;2023-08-06T08:00:20;25.00;46.50
82126;DHT22;71668;51.400;6.758;2023-08-06T08:02:47;24.90;47.00
82126;DHT22;71668;51.400;6.758;2023-08-06T08:05:14;24.90;46.90
82126;DHT22;71668;51.400;6.758;2023-08-06T08:07:41;25.00;46.80
82126;DHT22;71668;51.400;6.758;2023-08-06T08:10:08;25.20;46.60
82126;DHT22;71668;51.400;6.758;2023-08-06T08:12:35;25.30;46.10
82126;DHT22;71668;51.400;6.758;2023-08-06T08:15:02;25.20;46.00
82126;DHT22;71668;51.400;6.758;2023-08-06T08:17:30;25.00;46.20
82126;DHT22;71668;51.400;6.758;2023-08-06T08:19:57;24.90;46.40
82126;DHT22;71668;51.400;6.758;2023-08-06T08:22:24;24.80;46.70
82126;DHT22;71668;51.400;6.758;2023-08-06T08:24:50;24.50;47.20
82126;DHT22;71668;51.400;6.758;2023-08-06T08:27:17;24.30;47.80
82126;DHT22;71668;51.400;6.758;2023-08-06T08:29:44;24.00;48.30
82126;DHT22;71668;51.400;6.758;2023-08-06T08:32:11;23.70;48.30
82126;DHT22;71668;51.400;6.758;2023-08-06T08:34:38;23.50;48.90
82126;DHT22;71668;51.400;6.758;2023-08-06T08:37:04;23.40;49.40
82126;DHT22;71668;51.400;6.758;2023-08-06T08:39:32;23.10;49.90
82126;DHT22;71668;51.400;6.758;2023-08-06T08:41:59;23.00;50.30
82126;DHT22;71668;51.400;6.758;2023-08-06T08:44:28;22.90;50.70
82126;DHT22;71668;51.400;6.758;2023-08-06T08:46:56;22.80;50.60
82126;DHT22;71668;51.400;6.758;2023-08-06T08:49:24;22.80;50.60
82126;DHT22;71668;51.400;6.758;2023-08-06T08:51:53;22.80;50.90
82126;DHT22;71668;51.400;6.758;2023-08-06T08:54:23;22.80;50.70
82126;DHT22;71668;51.400;6.758;2023-08-06T08:56:50;22.80;50.70
82126;DHT22;71668;51.400;6.758;2023-08-06T08:59:17;22.80;50.60
82126;DHT22;71668;51.400;6.758;2023-08-06T09:01:47;22.70;50.60
82126;DHT22;71668;51.400;6.758;2023-08-06T09:04:18;22.70;50.70
82126;DHT22;71668;51.400;6.758;2023-08-06T09:06:47;22.60;51.00
82126;DHT22;71668;51.400;6.758;2023-08-06T09:09:26;22.60;51.30
82126;DHT22;71668;51.400;6.758;2023-08-06T09:12:00;22.50;51.30
82126;DHT22;71668;51.400;6.758;2023-08-06T09:14:27;22.40;51.10
82126;DHT22;71668;51.400;6.758;2023-08-06T09:16:54;22.20;51.40
82126;DHT22;71668;51.400;6.758;2023-08-06T09:19:21;22.10;51.80
82126;DHT22;71668;51.400;6.758;2023-08-06T09:21:51;21.90;52.40
82126;DHT22;71668;51.400;6.758;2023-08-06T09:24:18;21.80;53.10
82126;DHT22;71668;51.400;6.758;2023-08-06T09:26:45;21.70;52.90
82126;DHT22;71668;51.400;6.758;2023-08-06T09:29:12;21.60;53.20
82126;DHT22;71668;51.400;6.758;2023-08-06T09:31:44;21.50;52.90
82126;DHT22;71668;51.400;6.758;2023-08-06T09:34:15;21.50;53.90
82126;DHT22;71668;51.400;6.758;2023-08-06T09:36:46;21.40;54.60
82126;DHT22;71668;51.400;6.758;2023-08-06T09:39:14;21.40;55.20
82126;DHT22;71668;51.400;6.758;2023-08-06T09:41:42;21.50;55.70
82126;DHT22;71668;51.400;6.758;2023-08-06T09:44:20;21.60;55.50
82126;DHT22;71668;51.400;6.758;2023-08-06T09:46:52;21.80;55.40
82126;DHT22;71668;51.400;6.758;2023-08-06T09:49:21;22.00;54.90
82126;DHT22;71668;51.400;6.758;2023-08-06T09:51:51;22.20;54.20
82126;DHT22;71668;51.400;6.758;2023-08-06T09:54:22;22.60;53.70
82126;DHT22;71668;51.400;6.758;2023-08-06T09:56:53;23.20;52.70
82126;DHT22;71668;51.400;6.758;2023-08-06T09:59:20;25.40;48.40
82126;DHT22;71668;51.400;6.758;2023-08-06T10:01:46;27.80;43.20
82126;DHT22;71668;51.400;6.758;2023-08-06T10:04:16;30.70;38.70
82126;DHT22;71668;51.400;6.758;2023-08-06T10:06:48;33.30;34.70
82126;DHT22;71668;51.400;6.758;2023-08-06T10:09:15;35.10;31.50
82126;DHT22;71668;51.400;6.758;2023-08-06T10:11:43;34.20;31.20
82126;DHT22;71668;51.400;6.758;2023-08-06T10:14:26;32.70;32.20
82126;DHT22;71668;51.400;6.758;2023-08-06T10:16:55;30.90;34.50
82126;DHT22;71668;51.400;6.758;2023-08-06T10:19:23;29.40;36.70
82126;DHT22;71668;51.400;6.758;2023-08-06T10:22:12;28.10;38.90
82126;DHT22;71668;51.400;6.758;2023-08-06T10:25:05;27.00;41.10
82126;DHT22;71668;51.400;6.758;2023-08-06T10:27:33;26.00;43.00
82126;DHT22;71668;51.400;6.758;2023-08-06T10:30:29;25.30;44.30
82126;DHT22;71668;51.400;6.758;2023-08-06T10:33:03;24.70;45.90
82126;DHT22;71668;51.400;6.758;2023-08-06T10:35:36;24.20;47.40
82126;DHT22;71668;51.400;6.758;2023-08-06T10:38:08;23.60;48.70
82126;DHT22;71668;51.400;6.758;2023-08-06T10:40:37;23.10;50.20
82126;DHT22;71668;51.400;6.758;2023-08-06T10:43:06;22.60;51.50
82126;DHT22;71668;51.400;6.758;2023-08-06T10:45:35;22.10;52.90
82126;DHT22;71668;51.400;6.758;2023-08-06T10:48:03;21.50;53.50
82126;DHT22;71668;51.400;6.758;2023-08-06T10:50:30;21.00;54.60
82126;DHT22;71668;51.400;6.758;2023-08-06T10:53:02;20.60;55.90
82126;DHT22;71668;51.400;6.758;2023-08-06T10:55:30;20.30;56.70
82126;DHT22;71668;51.400;6.758;2023-08-06T10:57:57;19.90;57.40
82126;DHT22;71668;51.400;6.758;2023-08-06T11:00:24;19.70;58.40
82126;DHT22;71668;51.400;6.758;2023-08-06T11:02:53;19.50;58.70
82126;DHT22;71668;51.400;6.758;2023-08-06T11:05:20;19.30;59.30
82126;DHT22;71668;51.400;6.758;2023-08-06T11:07:47;19.20;59.60
82126;DHT22;71668;51.400;6.758;2023-08-06T11:10:16;19.20;60.30
82126;DHT22;71668;51.400;6.758;2023-08-06T11:12:43;19.00;61.10
82126;DHT22;71668;51.400;6.758;2023-08-06T11:15:10;19.00;61.90
82126;DHT22;71668;51.400;6.758;2023-08-06T11:17:40;18.80;62.00
82126;DHT22;71668;51.400;6.758;2023-08-06T11:20:08;18.80;62.40
82126;DHT22;71668;51.400;6.758;2023-08-06T11:22:37;18.80;62.80
82126;DHT22;71668;51.400;6.758;2023-08-06T11:25:06;18.80;62.90
82126;DHT22;71668;51.400;6.758;2023-08-06T11:27:33;18.80;63.00
82126;DHT22;71668;51.400;6.758;2023-08-06T11:30:00;18.80;62.70
82126;DHT22;71668;51.400;6.758;2023-08-06T11:32:27;18.80;62.70
82126;DHT22;71668;51.400;6.758;2023-08-06T11:34:55;18.80;63.00
82126;DHT22;71668;51.400;6.758;2023-08-06T11:37:22;18.70;63.00
82126;DHT22;71668;51.400;6.758;2023-08-06T11:39:51;18.70;63.00
82126;DHT22;71668;51.400;6.758;2023-08-06T11:42:18;18.70;63.00
82126;DHT22;71668;51.400;6.758;2023-08-06T11:44:45;18.70;63.10
82126;DHT22;71668;51.400;6.758;2023-08-06T11:47:15;18.70;63.50
82126;DHT22;71668;51.400;6.758;2023-08-06T11:49:47;18.70;63.30
82126;DHT22;71668;51.400;6.758;2023-08-06T11:52:18;18.70;63.00
82126;DHT22;71668;51.400;6.758;2023-08-06T11:55:06;18.70;63.30
82126;DHT22;71668;51.400;6.758;2023-08-06T11:57:37;18.70;63.10
82126;DHT22;71668;51.400;6.758;2023-08-06T12:00:08;18.60;63.00
82126;DHT22;71668;51.400;6.758;2023-08-06T12:02:39;18.60;62.90
82126;DHT22;71668;51.400;6.758;2023-08-06T12:05:15;18.70;62.90
82126;DHT22;71668;51.400;6.758;2023-08-06T12:07:47;18.60;62.80
82126;DHT22;71668;51.400;6.758;2023-08-06T12:10:36;18.60;62.70
82126;DHT22;71668;51.400;6.758;2023-08-06T12:13:04;18.60;62.80
82126;DHT22;71668;51.400;6.758;2023-08-06T12:15:31;18.60;62.90
82126;DHT22;71668;51.400;6.758;2023-08-06T12:17:59;18.60;62.90
82126;DHT22;71668;51.400;6.758;2023-08-06T12:20:26;18.70;63.10
82126;DHT22;71668;51.400;6.758;2023-08-06T12:22:55;18.70;63.20
82126;DHT22;71668;51.400;6.758;2023-08-06T12:25:21;18.80;63.10
82126;DHT22;71668;51.400;6.758;2023-08-06T12:27:50;18.90;62.90
82126;DHT22;71668;51.400;6.758;2023-08-06T12:30:16;18.90;63.10
82126;DHT22;71668;51.400;6.758;2023-08-06T12:32:43;19.00;62.80
82126;DHT22;71668;51.400;6.758;2023-08-06T12:35:10;19.20;62.30
82126;DHT22;71668;51.400;6.758;2023-08-06T12:37:37;19.40;62.00
82126;DHT22;71668;51.400;6.758;2023-08-06T12:40:07;19.60;62.00
82126;DHT22;71668;51.400;6.758;2023-08-06T12:42:54;19.70;61.10
82126;DHT22;71668;51.400;6.758;2023-08-06T12:45:22;19.80;60.40
82126;DHT22;71668;51.400;6.758;2023-08-06T12:47:49;19.80;60.10
82126;DHT22;71668;51.400;6.758;2023-08-06T12:50:17;19.80;60.50
82126;DHT22;71668;51.400;6.758;2023-08-06T12:52:44;19.70;60.20
82126;DHT22;71668;51.400;6.758;2023-08-06T12:55:11;19.50;60.50
82126;DHT22;71668;51.400;6.758;2023-08-06T12:57:37;19.40;61.20
82126;DHT22;71668;51.400;6.758;2023-08-06T13:00:10;19.20;61.60
82126;DHT22;71668;51.400;6.758;2023-08-06T13:02:37;19.20;62.20
82126;DHT22;71668;51.400;6.758;2023-08-06T13:05:04;19.10;62.00
82126;DHT22;71668;51.400;6.758;2023-08-06T13:07:32;19.10;61.90
82126;DHT22;71668;51.400;6.758;2023-08-06T13:09:59;19.20;62.00
82126;DHT22;71668;51.400;6.758;2023-08-06T13:12:26;19.20;61.90
82126;DHT22;71668;51.400;6.758;2023-08-06T13:14:53;19.10;61.40
82126;DHT22;71668;51.400;6.758;2023-08-06T13:17:22;19.10;61.70
82126;DHT22;71668;51.400;6.758;2023-08-06T13:19:48;19.10;61.50
82126;DHT22;71668;51.400;6.758;2023-08-06T13:22:15;19.20;61.40
82126;DHT22;71668;51.400;6.758;2023-08-06T13:24:42;19.30;61.30
82126;DHT22;71668;51.400;6.758;2023-08-06T13:27:09;19.40;60.70
82126;DHT22;71668;51.400;6.758;2023-08-06T13:29:36;19.60;60.00
82126;DHT22;71668;51.400;6.758;2023-08-06T13:32:03;19.40;60.00
82126;DHT22;71668;51.400;6.758;2023-08-06T13:34:30;19.30;60.70
82126;DHT22;71668;51.400;6.758;2023-08-06T13:36:57;19.20;61.20
82126;DHT22;71668;51.400;6.758;2023-08-06T13:39:24;19.30;61.20
82126;DHT22;71668;51.400;6.758;2023-08-06T13:41:51;19.20;61.40
82126;DHT22;71668;51.400;6.758;2023-08-06T13:44:18;19.20;61.80
82126;DHT22;71668;51.400;6.758;2023-08-06T13:46:44;19.10;62.10
82126;DHT22;71668;51.400;6.758;2023-08-06T13:49:11;19.00;62.30
82126;DHT22;71668;51.400;6.758;2023-08-06T13:51:38;18.90;63.00
82126;DHT22;71668;51.400;6.758;2023-08-06T13:54:05;18.80;63.10
82126;DHT22;71668;51.400;6.758;2023-08-06T13:56:34;18.80;63.60
82126;DHT22;71668;51.400;6.758;2023-08-06T13:59:01;18.80;63.60
82126;DHT22;71668;51.400;6.758;2023-08-06T14:01:27;19.00;63.80
82126;DHT22;71668;51.400;6.758;2023-08-06T14:04:14;19.30;63.60
82126;DHT22;71668;51.400;6.758;2023-08-06T14:06:41;19.40;62.70
82126;DHT22;71668;51.400;6.758;2023-08-06T14:09:08;19.60;62.10
82126;DHT22;71668;51.400;6.758;2023-08-06T14:11:35;19.70;61.70
82126;DHT22;71668;51.400;6.758;2023-08-06T14:14:02;19.70;61.30
82126;DHT22;71668;51.400;6.758;2023-08-06T14:16:30;19.70;61.40
82126;DHT22;71668;51.400;6.758;2023-08-06T14:18:57;19.70;60.30
82126;DHT22;71668;51.400;6.758;2023-08-06T14:21:23;19.80;60.20
82126;DHT22;71668;51.400;6.758;2023-08-06T14:23:50;20.00;60.10
82126;DHT22;71668;51.400;6.758;2023-08-06T14:26:18;20.20;59.40
82126;DHT22;71668;51.400;6.758;2023-08-06T14:28:45;20.40;59.00
82126;DHT22;71668;51.400;6.758;2023-08-06T14:31:12;20.50;58.30
82126;DHT22;71668;51.400;6.758;2023-08-06T14:33:39;20.80;58.10
82126;DHT22;71668;51.400;6.758;2023-08-06T14:36:06;21.10;57.60
82126;DHT22;71668;51.400;6.758;2023-08-06T14:38:33;21.30;57.20
82126;DHT22;71668;51.400;6.758;2023-08-06T14:41:06;21.50;56.50
82126;DHT22;71668;51.400;6.758;2023-08-06T14:43:33;21.50;56.40
82126;DHT22;71668;51.400;6.758;2023-08-06T14:46:00;21.40;56.30
82126;DHT22;71668;51.400;6.758;2023-08-06T14:48:27;21.30;56.00
82126;DHT22;71668;51.400;6.758;2023-08-06T14:50:54;21.30;55.90
82126;DHT22;71668;51.400;6.758;2023-08-06T14:53:21;21.20;56.20
82126;DHT22;71668;51.400;6.758;2023-08-06T14:55:48;21.20;56.50
82126;DHT22;71668;51.400;6.758;2023-08-06T14:58:15;21.10;56.30
82126;DHT22;71668;51.400;6.758;2023-08-06T15:00:42;21.10;56.50
82126;DHT22;71668;51.400;6.758;2023-08-06T15:03:09;21.20;56.10
82126;DHT22;71668;51.400;6.758;2023-08-06T15:05:36;21.30;56.00
82126;DHT22;71668;51.400;6.758;2023-08-06T15:08:03;21.60;55.70
82126;DHT22;71668;51.400;6.758;2023-08-06T15:10:30;21.80;55.90
82126;DHT22;71668;51.400;6.758;2023-08-06T15:12:56;21.80;54.30
82126;DHT22;71668;51.400;6.758;2023-08-06T15:15:23;21.90;54.30
82126;DHT22;71668;51.400;6.758;2023-08-06T15:17:51;22.00;53.80
82126;DHT22;71668;51.400;6.758;2023-08-06T15:20:18;22.10;53.60
82126;DHT22;71668;51.400;6.758;2023-08-06T15:22:45;22.10;52.70
82126;DHT22;71668;51.400;6.758;2023-08-06T15:25:12;22.00;52.90
82126;DHT22;71668;51.400;6.758;2023-08-06T15:27:39;22.00;53.20
82126;DHT22;71668;51.400;6.758;2023-08-06T15:30:07;22.00;52.80
82126;DHT22;71668;51.400;6.758;2023-08-06T15:32:34;21.90;52.50
82126;DHT22;71668;51.400;6.758;2023-08-06T15:35:01;21.80;53.00
82126;DHT22;71668;51.400;6.758;2023-08-06T15:37:30;21.80;53.10
82126;DHT22;71668;51.400;6.758;2023-08-06T15:39:58;21.70;53.20
82126;DHT22;71668;51.400;6.758;2023-08-06T15:42:25;21.70;53.30
82126;DHT22;71668;51.400;6.758;2023-08-06T15:44:52;21.60;52.80
82126;DHT22;71668;51.400;6.758;2023-08-06T15:47:18;21.50;53.40
82126;DHT22;71668;51.400;6.758;2023-08-06T15:49:45;21.50;53.50
82126;DHT22;71668;51.400;6.758;2023-08-06T15:52:12;21.40;53.50